WMT7N LIRF-EGGW
Flight info
| Callsign | WMT7N |
|---|---|
| Flight time | 2h 9m |
| Altitude | 36000 |
| Route | PODOX9E PODOX DCT TOBGA DCT DOBIM DCT PIGOS DCT BARSO DCT OKTET DCT GIPNO DCT BULOL DCT IDAVO DCT BAGBI DCT SIZZA DCT LAULY DCT BRY DCT CLM DCT KOPOR DCT PIREG DCT SOSUN DCT SUBIP UM733 UNDUG UNDUG1N |
| Aircraft | A321/M-SDE3FGHIRWY/LB1 |
Departure
| Time | 2026-05-06 19:37 |
|---|---|
| Airport | Rome–Fiumicino Leonardo da Vinci International Airport (LIRF) |
Arrival
| Time | 2026-05-06 21:46 |
|---|---|
| Airport | London Luton Airport (EGGW) |
| Time | Latitude | Longitude | Altitude | Speed | Heading |
|---|---|---|---|---|---|
| 2026-05-06 19:11 | 41.79393 | 12.24619 | 14 ft | 0 kts | 346° |
| 2026-05-06 19:24 | 41.79373 | 12.24626 | 14 ft | 3 kts | 346° |
| 2026-05-06 19:24 | 41.79352 | 12.24633 | 16 ft | 4 kts | 335° |
| 2026-05-06 19:24 | 41.79331 | 12.24653 | 16 ft | 4 kts | 300° |
| 2026-05-06 19:24 | 41.79326 | 12.24679 | 17 ft | 2 kts | 258° |
| 2026-05-06 19:25 | 41.79322 | 12.24650 | 17 ft | 4 kts | 258° |
| 2026-05-06 19:25 | 41.79316 | 12.24615 | 15 ft | 4 kts | 258° |
| 2026-05-06 19:25 | 41.79311 | 12.24579 | 14 ft | 4 kts | 258° |
| 2026-05-06 19:25 | 41.79306 | 12.24544 | 14 ft | 4 kts | 258° |
| 2026-05-06 19:26 | 41.79300 | 12.24508 | 14 ft | 4 kts | 258° |
| 2026-05-06 19:26 | 41.79297 | 12.24488 | 14 ft | 0 kts | 258° |
| 2026-05-06 19:28 | 41.79296 | 12.24482 | 14 ft | 3 kts | 258° |
| 2026-05-06 19:28 | 41.79314 | 12.24413 | 14 ft | 13 kts | 302° |
| 2026-05-06 19:28 | 41.79378 | 12.24285 | 14 ft | 18 kts | 304° |
| 2026-05-06 19:29 | 41.79369 | 12.24134 | 14 ft | 17 kts | 250° |
| 2026-05-06 19:29 | 41.79396 | 12.24014 | 14 ft | 15 kts | 334° |
| 2026-05-06 19:29 | 41.79492 | 12.23965 | 14 ft | 13 kts | 340° |
| 2026-05-06 19:29 | 41.79593 | 12.23915 | 15 ft | 18 kts | 340° |
| 2026-05-06 19:30 | 41.79641 | 12.23891 | 14 ft | 0 kts | 339° |
| 2026-05-06 19:30 | 41.79644 | 12.23890 | 14 ft | 0 kts | 339° |
| 2026-05-06 19:30 | 41.79656 | 12.23884 | 14 ft | 7 kts | 340° |
| 2026-05-06 19:30 | 41.79719 | 12.23942 | 14 ft | 15 kts | 66° |
| 2026-05-06 19:31 | 41.79757 | 12.24073 | 14 ft | 16 kts | 66° |
| 2026-05-06 19:31 | 41.79792 | 12.24213 | 14 ft | 16 kts | 71° |
| 2026-05-06 19:31 | 41.79956 | 12.24235 | 14 ft | 14 kts | 341° |
| 2026-05-06 19:32 | 41.80041 | 12.24271 | 13 ft | 15 kts | 68° |
| 2026-05-06 19:32 | 41.80084 | 12.24430 | 14 ft | 24 kts | 70° |
| 2026-05-06 19:32 | 41.80159 | 12.24699 | 15 ft | 36 kts | 69° |
| 2026-05-06 19:32 | 41.80204 | 12.24989 | 14 ft | 31 kts | 97° |
| 2026-05-06 19:33 | 41.80259 | 12.25264 | 15 ft | 30 kts | 69° |
| 2026-05-06 19:33 | 41.80330 | 12.25519 | 18 ft | 29 kts | 70° |
| 2026-05-06 19:33 | 41.80398 | 12.25765 | 15 ft | 28 kts | 70° |
| 2026-05-06 19:33 | 41.80465 | 12.26013 | 16 ft | 28 kts | 70° |
| 2026-05-06 19:34 | 41.80532 | 12.26252 | 18 ft | 27 kts | 70° |
| 2026-05-06 19:34 | 41.80597 | 12.26491 | 16 ft | 27 kts | 70° |
| 2026-05-06 19:34 | 41.80663 | 12.26727 | 16 ft | 27 kts | 69° |
| 2026-05-06 19:34 | 41.80718 | 12.26925 | 13 ft | 19 kts | 68° |
| 2026-05-06 19:35 | 41.80762 | 12.27083 | 13 ft | 16 kts | 70° |
| 2026-05-06 19:35 | 41.80844 | 12.27127 | 13 ft | 14 kts | 339° |
| 2026-05-06 19:35 | 41.80940 | 12.27078 | 13 ft | 15 kts | 339° |
| 2026-05-06 19:35 | 41.80977 | 12.26998 | 13 ft | 11 kts | 263° |
| 2026-05-06 19:36 | 41.80952 | 12.26896 | 13 ft | 12 kts | 250° |
| 2026-05-06 19:36 | 41.80895 | 12.26690 | 13 ft | 52 kts | 249° |
| 2026-05-06 19:36 | 41.80684 | 12.25933 | 17 ft | 120 kts | 250° |
| 2026-05-06 19:36 | 41.80326 | 12.24640 | 20 ft | 173 kts | 250° |
| 2026-05-06 19:37 | 41.79909 | 12.23057 | 533 ft | 181 kts | 251° |
| 2026-05-06 19:37 | 41.79612 | 12.21435 | 1326 ft | 181 kts | 258° |
| 2026-05-06 19:37 | 41.79619 | 12.19694 | 1717 ft | 197 kts | 266° |
| 2026-05-06 19:37 | 41.79593 | 12.18437 | 1825 ft | 209 kts | 261° |
| 2026-05-06 19:38 | 41.79410 | 12.15640 | 2080 ft | 238 kts | 260° |
| 2026-05-06 19:38 | 41.79266 | 12.13404 | 2637 ft | 244 kts | 261° |
| 2026-05-06 19:38 | 41.79138 | 12.11059 | 3132 ft | 258 kts | 263° |
| 2026-05-06 19:38 | 41.79043 | 12.08633 | 3896 ft | 262 kts | 265° |
| 2026-05-06 19:39 | 41.79005 | 12.06182 | 4711 ft | 265 kts | 266° |
| 2026-05-06 19:39 | 41.78995 | 12.03707 | 5519 ft | 267 kts | 266° |
| 2026-05-06 19:39 | 41.78996 | 12.01214 | 6298 ft | 269 kts | 266° |
| 2026-05-06 19:39 | 41.78998 | 11.98724 | 7127 ft | 271 kts | 267° |
| 2026-05-06 19:40 | 41.79001 | 11.96185 | 8138 ft | 274 kts | 267° |
| 2026-05-06 19:40 | 41.78999 | 11.93617 | 8914 ft | 277 kts | 267° |
| 2026-05-06 19:40 | 41.78991 | 11.91021 | 9624 ft | 280 kts | 268° |
| 2026-05-06 19:40 | 41.78983 | 11.88386 | 10210 ft | 289 kts | 268° |
| 2026-05-06 19:41 | 41.78973 | 11.85589 | 10368 ft | 311 kts | 267° |
| 2026-05-06 19:41 | 41.78960 | 11.82582 | 10502 ft | 334 kts | 267° |
| 2026-05-06 19:41 | 41.78947 | 11.79370 | 10627 ft | 355 kts | 267° |
| 2026-05-06 19:41 | 41.78935 | 11.76007 | 10985 ft | 366 kts | 267° |
| 2026-05-06 19:42 | 41.78922 | 11.72570 | 11575 ft | 370 kts | 267° |
| 2026-05-06 19:42 | 41.78909 | 11.69100 | 12206 ft | 374 kts | 267° |
| 2026-05-06 19:42 | 41.78891 | 11.65610 | 12844 ft | 377 kts | 268° |
| 2026-05-06 19:42 | 41.78871 | 11.62075 | 13460 ft | 381 kts | 267° |
| 2026-05-06 19:43 | 41.78850 | 11.58504 | 14049 ft | 385 kts | 267° |
| 2026-05-06 19:43 | 41.78870 | 11.54907 | 14621 ft | 389 kts | 271° |
| 2026-05-06 19:43 | 41.79154 | 11.51284 | 15215 ft | 392 kts | 274° |
| 2026-05-06 19:43 | 41.79456 | 11.47644 | 15824 ft | 394 kts | 274° |
| 2026-05-06 19:44 | 41.79836 | 11.43987 | 16409 ft | 399 kts | 281° |
| 2026-05-06 19:44 | 41.80885 | 11.40519 | 16979 ft | 408 kts | 298° |
| 2026-05-06 19:44 | 41.82677 | 11.37536 | 17557 ft | 415 kts | 310° |
| 2026-05-06 19:44 | 41.84671 | 11.34723 | 18142 ft | 418 kts | 310° |
| 2026-05-06 19:45 | 41.86691 | 11.31908 | 18644 ft | 420 kts | 310° |
| 2026-05-06 19:45 | 41.88726 | 11.29075 | 19136 ft | 422 kts | 310° |
| 2026-05-06 19:45 | 41.90766 | 11.26225 | 19579 ft | 425 kts | 310° |
| 2026-05-06 19:45 | 41.92816 | 11.23349 | 20050 ft | 427 kts | 309° |
| 2026-05-06 19:46 | 41.94846 | 11.20490 | 20549 ft | 429 kts | 309° |
| 2026-05-06 19:46 | 41.96906 | 11.17584 | 21011 ft | 431 kts | 309° |
| 2026-05-06 19:46 | 41.98975 | 11.14662 | 21467 ft | 432 kts | 309° |
| 2026-05-06 19:46 | 42.01051 | 11.11723 | 21926 ft | 434 kts | 309° |
| 2026-05-06 19:47 | 42.03134 | 11.08771 | 22374 ft | 436 kts | 309° |
| 2026-05-06 19:47 | 42.05225 | 11.05804 | 22819 ft | 438 kts | 308° |
| 2026-05-06 19:47 | 42.07328 | 11.02819 | 23262 ft | 440 kts | 308° |
| 2026-05-06 19:47 | 42.09431 | 10.99828 | 23675 ft | 441 kts | 307° |
| 2026-05-06 19:48 | 42.11549 | 10.96814 | 24040 ft | 443 kts | 308° |
| 2026-05-06 19:48 | 42.13670 | 10.93791 | 24399 ft | 445 kts | 308° |
| 2026-05-06 19:48 | 42.15798 | 10.90757 | 24750 ft | 447 kts | 307° |
| 2026-05-06 19:48 | 42.17935 | 10.87707 | 25095 ft | 448 kts | 307° |
| 2026-05-06 19:49 | 42.20080 | 10.84644 | 25426 ft | 450 kts | 307° |
| 2026-05-06 19:49 | 42.22234 | 10.81566 | 25758 ft | 452 kts | 307° |
| 2026-05-06 19:49 | 42.24396 | 10.78477 | 26092 ft | 453 kts | 307° |
| 2026-05-06 19:49 | 42.26562 | 10.75378 | 26428 ft | 455 kts | 307° |
| 2026-05-06 19:50 | 42.28740 | 10.72257 | 26760 ft | 457 kts | 307° |
| 2026-05-06 19:50 | 42.30920 | 10.69126 | 27078 ft | 459 kts | 307° |
| 2026-05-06 19:50 | 42.33111 | 10.65973 | 27402 ft | 461 kts | 307° |
| 2026-05-06 19:50 | 42.35305 | 10.62815 | 27781 ft | 460 kts | 307° |
| 2026-05-06 19:51 | 42.37492 | 10.59665 | 28235 ft | 459 kts | 307° |
| 2026-05-06 19:51 | 42.39674 | 10.56523 | 28701 ft | 457 kts | 307° |
| 2026-05-06 19:51 | 42.41847 | 10.53390 | 29118 ft | 457 kts | 307° |
| 2026-05-06 19:51 | 42.44018 | 10.50254 | 29558 ft | 455 kts | 307° |
| 2026-05-06 19:52 | 42.46177 | 10.47134 | 30012 ft | 454 kts | 307° |
| 2026-05-06 19:52 | 42.48332 | 10.44020 | 30391 ft | 452 kts | 307° |
| 2026-05-06 19:52 | 42.50478 | 10.40908 | 30749 ft | 451 kts | 306° |
| 2026-05-06 19:52 | 42.52614 | 10.37804 | 31102 ft | 450 kts | 306° |
| 2026-05-06 19:53 | 42.54750 | 10.34704 | 31452 ft | 450 kts | 306° |
| 2026-05-06 19:53 | 42.56883 | 10.31607 | 31817 ft | 449 kts | 306° |
| 2026-05-06 19:53 | 42.59014 | 10.28504 | 32148 ft | 449 kts | 306° |
| 2026-05-06 19:53 | 42.61136 | 10.25406 | 32489 ft | 448 kts | 306° |
| 2026-05-06 19:54 | 42.63252 | 10.22310 | 32830 ft | 447 kts | 306° |
| 2026-05-06 19:54 | 42.65338 | 10.19259 | 33188 ft | 446 kts | 306° |
| 2026-05-06 19:54 | 42.67449 | 10.16173 | 33513 ft | 446 kts | 306° |
| 2026-05-06 19:54 | 42.69560 | 10.13083 | 33845 ft | 445 kts | 306° |
| 2026-05-06 19:55 | 42.71667 | 10.10000 | 34125 ft | 445 kts | 306° |
| 2026-05-06 19:55 | 42.73768 | 10.06921 | 34419 ft | 444 kts | 306° |
| 2026-05-06 19:55 | 42.75866 | 10.03842 | 34695 ft | 443 kts | 306° |
| 2026-05-06 19:55 | 42.77956 | 10.00770 | 34968 ft | 442 kts | 306° |
| 2026-05-06 19:56 | 42.80046 | 9.97693 | 35252 ft | 442 kts | 306° |
| 2026-05-06 19:56 | 42.82130 | 9.94626 | 35513 ft | 441 kts | 306° |
| 2026-05-06 19:56 | 42.84211 | 9.91557 | 35777 ft | 441 kts | 306° |
| 2026-05-06 19:56 | 42.86291 | 9.88485 | 35923 ft | 441 kts | 306° |
| 2026-05-06 19:57 | 42.90455 | 9.82334 | 35971 ft | 441 kts | 306° |
| 2026-05-06 19:57 | 42.93889 | 9.77150 | 35956 ft | 437 kts | 301° |
| 2026-05-06 19:58 | 42.96822 | 9.70155 | 35953 ft | 422 kts | 285° |
| 2026-05-06 19:58 | 42.98995 | 9.62709 | 35956 ft | 422 kts | 285° |
| 2026-05-06 19:59 | 43.01184 | 9.55252 | 35960 ft | 423 kts | 285° |
| 2026-05-06 19:59 | 43.03362 | 9.47790 | 35969 ft | 423 kts | 285° |
| 2026-05-06 20:00 | 43.05534 | 9.40348 | 35959 ft | 417 kts | 285° |
| 2026-05-06 20:00 | 43.07673 | 9.32990 | 35953 ft | 416 kts | 285° |
| 2026-05-06 20:01 | 43.09801 | 9.25615 | 35956 ft | 417 kts | 285° |
| 2026-05-06 20:01 | 43.11925 | 9.18233 | 35957 ft | 417 kts | 285° |
| 2026-05-06 20:02 | 43.14055 | 9.10832 | 35961 ft | 418 kts | 285° |
| 2026-05-06 20:02 | 43.16177 | 9.03423 | 35978 ft | 418 kts | 285° |
| 2026-05-06 20:03 | 43.18303 | 8.96009 | 35971 ft | 418 kts | 285° |
| 2026-05-06 20:03 | 43.20420 | 8.88583 | 35969 ft | 418 kts | 284° |
| 2026-05-06 20:04 | 43.22509 | 8.81202 | 35971 ft | 418 kts | 284° |
| 2026-05-06 20:04 | 43.24615 | 8.73764 | 35969 ft | 418 kts | 285° |
| 2026-05-06 20:05 | 43.26721 | 8.66338 | 35950 ft | 417 kts | 284° |
| 2026-05-06 20:05 | 43.28811 | 8.58925 | 35949 ft | 417 kts | 284° |
| 2026-05-06 20:06 | 43.30897 | 8.51500 | 35948 ft | 417 kts | 284° |
| 2026-05-06 20:06 | 43.32977 | 8.44056 | 35968 ft | 418 kts | 284° |
| 2026-05-06 20:07 | 43.35055 | 8.36607 | 35960 ft | 418 kts | 284° |
| 2026-05-06 20:07 | 43.37140 | 8.29148 | 35937 ft | 418 kts | 284° |
| 2026-05-06 20:08 | 43.39213 | 8.21673 | 35930 ft | 418 kts | 284° |
| 2026-05-06 20:08 | 43.41270 | 8.14198 | 35919 ft | 418 kts | 284° |
| 2026-05-06 20:09 | 43.43332 | 8.06706 | 35921 ft | 419 kts | 284° |
| 2026-05-06 20:09 | 43.45399 | 7.99211 | 35917 ft | 419 kts | 284° |
| 2026-05-06 20:10 | 43.47458 | 7.91712 | 35929 ft | 419 kts | 284° |
| 2026-05-06 20:10 | 43.49520 | 7.84189 | 35913 ft | 420 kts | 284° |
| 2026-05-06 20:11 | 43.51573 | 7.76660 | 35909 ft | 420 kts | 284° |
| 2026-05-06 20:11 | 43.53612 | 7.69112 | 35904 ft | 420 kts | 284° |
| 2026-05-06 20:12 | 43.55635 | 7.61620 | 35904 ft | 420 kts | 284° |
| 2026-05-06 20:12 | 43.57676 | 7.54078 | 35900 ft | 420 kts | 284° |
| 2026-05-06 20:13 | 43.59715 | 7.46533 | 35902 ft | 420 kts | 284° |
| 2026-05-06 20:13 | 43.62219 | 7.39156 | 35899 ft | 438 kts | 298° |
| 2026-05-06 20:14 | 43.64183 | 7.35868 | 35901 ft | 452 kts | 309° |
| 2026-05-06 20:14 | 43.66638 | 7.33056 | 35895 ft | 467 kts | 320° |
| 2026-05-06 20:14 | 43.72122 | 7.28072 | 35893 ft | 475 kts | 320° |
| 2026-05-06 20:15 | 43.77676 | 7.22986 | 35943 ft | 478 kts | 320° |
| 2026-05-06 20:15 | 43.80400 | 7.20500 | 35971 ft | 465 kts | 320° |
| 2026-05-06 20:15 | 43.83083 | 7.18066 | 35833 ft | 454 kts | 320° |
| 2026-05-06 20:16 | 43.88304 | 7.13242 | 35886 ft | 453 kts | 319° |
| 2026-05-06 20:16 | 43.93512 | 7.08386 | 35887 ft | 454 kts | 319° |
| 2026-05-06 20:17 | 43.98773 | 7.03510 | 35888 ft | 455 kts | 319° |
| 2026-05-06 20:17 | 44.04043 | 6.98636 | 35919 ft | 455 kts | 319° |
| 2026-05-06 20:18 | 44.09310 | 6.93743 | 35921 ft | 456 kts | 319° |
| 2026-05-06 20:18 | 44.14582 | 6.88827 | 35918 ft | 456 kts | 319° |
| 2026-05-06 20:19 | 44.19864 | 6.83909 | 35969 ft | 457 kts | 320° |
| 2026-05-06 20:19 | 44.25136 | 6.78989 | 35961 ft | 456 kts | 320° |
| 2026-05-06 20:20 | 44.30396 | 6.74054 | 35955 ft | 456 kts | 320° |
| 2026-05-06 20:20 | 44.35656 | 6.69095 | 35971 ft | 456 kts | 319° |
| 2026-05-06 20:21 | 44.40916 | 6.64129 | 35985 ft | 456 kts | 319° |
| 2026-05-06 20:21 | 44.46183 | 6.59151 | 35984 ft | 457 kts | 320° |
| 2026-05-06 20:22 | 44.51412 | 6.54207 | 35982 ft | 457 kts | 320° |
| 2026-05-06 20:22 | 44.56681 | 6.49217 | 35988 ft | 457 kts | 319° |
| 2026-05-06 20:23 | 44.61941 | 6.44201 | 36008 ft | 457 kts | 320° |
| 2026-05-06 20:23 | 44.67202 | 6.39186 | 35999 ft | 458 kts | 320° |
| 2026-05-06 20:24 | 44.72476 | 6.34168 | 35999 ft | 458 kts | 320° |
| 2026-05-06 20:24 | 44.77748 | 6.29128 | 35998 ft | 458 kts | 320° |
| 2026-05-06 20:25 | 44.83021 | 6.24082 | 36007 ft | 457 kts | 320° |
| 2026-05-06 20:25 | 44.88280 | 6.19018 | 36007 ft | 458 kts | 320° |
| 2026-05-06 20:26 | 44.93541 | 6.13945 | 36005 ft | 459 kts | 320° |
| 2026-05-06 20:26 | 44.98810 | 6.08858 | 36013 ft | 458 kts | 320° |
| 2026-05-06 20:27 | 45.04072 | 6.03779 | 36025 ft | 458 kts | 321° |
| 2026-05-06 20:27 | 45.09300 | 5.98714 | 36009 ft | 458 kts | 321° |
| 2026-05-06 20:28 | 45.14557 | 5.93592 | 36006 ft | 459 kts | 321° |
| 2026-05-06 20:28 | 45.19824 | 5.88463 | 36002 ft | 459 kts | 320° |
| 2026-05-06 20:29 | 45.25084 | 5.83333 | 36009 ft | 459 kts | 321° |
| 2026-05-06 20:29 | 45.30341 | 5.78191 | 36014 ft | 459 kts | 321° |
| 2026-05-06 20:30 | 45.38219 | 5.70459 | 36003 ft | 458 kts | 321° |
| 2026-05-06 20:31 | 45.43459 | 5.65306 | 35992 ft | 458 kts | 321° |
| 2026-05-06 20:31 | 45.48700 | 5.60140 | 36008 ft | 458 kts | 321° |
| 2026-05-06 20:32 | 45.53936 | 5.54957 | 36003 ft | 458 kts | 321° |
| 2026-05-06 20:32 | 45.59221 | 5.49851 | 35996 ft | 459 kts | 323° |
| 2026-05-06 20:33 | 45.64652 | 5.45038 | 36009 ft | 460 kts | 325° |
| 2026-05-06 20:33 | 45.70089 | 5.40323 | 36002 ft | 459 kts | 325° |
| 2026-05-06 20:34 | 45.75515 | 5.35498 | 36002 ft | 459 kts | 324° |
| 2026-05-06 20:34 | 45.80908 | 5.30615 | 36000 ft | 459 kts | 324° |
| 2026-05-06 20:35 | 45.86303 | 5.25737 | 36007 ft | 458 kts | 324° |
| 2026-05-06 20:35 | 45.91699 | 5.20871 | 36002 ft | 458 kts | 324° |
| 2026-05-06 20:36 | 45.97097 | 5.15984 | 35999 ft | 458 kts | 324° |
| 2026-05-06 20:36 | 46.02482 | 5.11093 | 35990 ft | 458 kts | 325° |
| 2026-05-06 20:37 | 46.08162 | 5.06911 | 35993 ft | 461 kts | 333° |
| 2026-05-06 20:37 | 46.14034 | 5.03189 | 35986 ft | 461 kts | 333° |
| 2026-05-06 20:38 | 46.19896 | 4.99450 | 35980 ft | 461 kts | 333° |
| 2026-05-06 20:38 | 46.25774 | 4.95693 | 35985 ft | 461 kts | 333° |
| 2026-05-06 20:39 | 46.31602 | 4.91962 | 35988 ft | 461 kts | 333° |
| 2026-05-06 20:39 | 46.37464 | 4.88197 | 35991 ft | 461 kts | 333° |
| 2026-05-06 20:40 | 46.43325 | 4.84428 | 35991 ft | 461 kts | 333° |
| 2026-05-06 20:40 | 46.49186 | 4.80644 | 35995 ft | 461 kts | 334° |
| 2026-05-06 20:41 | 46.55046 | 4.76859 | 35995 ft | 461 kts | 334° |
| 2026-05-06 20:41 | 46.60900 | 4.73068 | 35987 ft | 460 kts | 334° |
| 2026-05-06 20:42 | 46.66745 | 4.69265 | 35989 ft | 460 kts | 334° |
| 2026-05-06 20:42 | 46.72583 | 4.65459 | 35988 ft | 460 kts | 334° |
| 2026-05-06 20:43 | 46.78426 | 4.61642 | 35984 ft | 460 kts | 334° |
| 2026-05-06 20:43 | 46.84268 | 4.57820 | 35984 ft | 460 kts | 334° |
| 2026-05-06 20:44 | 46.90116 | 4.54022 | 35990 ft | 460 kts | 334° |
| 2026-05-06 20:44 | 46.95968 | 4.50219 | 35990 ft | 460 kts | 334° |
| 2026-05-06 20:45 | 47.01813 | 4.46418 | 35996 ft | 459 kts | 334° |
| 2026-05-06 20:45 | 47.07609 | 4.42630 | 35997 ft | 458 kts | 334° |
| 2026-05-06 20:46 | 47.13427 | 4.38810 | 35998 ft | 458 kts | 334° |
| 2026-05-06 20:46 | 47.19228 | 4.34985 | 35997 ft | 457 kts | 334° |
| 2026-05-06 20:47 | 47.25038 | 4.31151 | 35995 ft | 457 kts | 334° |
| 2026-05-06 20:47 | 47.30841 | 4.27318 | 36003 ft | 457 kts | 334° |
| 2026-05-06 20:48 | 47.36641 | 4.23474 | 35996 ft | 457 kts | 334° |
| 2026-05-06 20:48 | 47.42436 | 4.19621 | 35995 ft | 457 kts | 334° |
| 2026-05-06 20:49 | 47.47248 | 4.16406 | 36000 ft | 456 kts | 334° |
| 2026-05-06 20:49 | 47.53035 | 4.12540 | 35998 ft | 456 kts | 334° |
| 2026-05-06 20:50 | 47.58819 | 4.08684 | 35995 ft | 456 kts | 334° |
| 2026-05-06 20:50 | 47.64603 | 4.04828 | 35993 ft | 455 kts | 334° |
| 2026-05-06 20:51 | 47.70377 | 4.00955 | 35990 ft | 455 kts | 334° |
| 2026-05-06 20:51 | 47.76151 | 3.97071 | 35986 ft | 455 kts | 334° |
| 2026-05-06 20:52 | 47.81924 | 3.93187 | 35981 ft | 456 kts | 334° |
| 2026-05-06 20:52 | 47.87706 | 3.89290 | 35983 ft | 456 kts | 334° |
| 2026-05-06 20:53 | 47.93475 | 3.85379 | 35984 ft | 456 kts | 334° |
| 2026-05-06 20:53 | 47.99209 | 3.81486 | 35981 ft | 456 kts | 334° |
| 2026-05-06 20:54 | 48.04984 | 3.77559 | 35982 ft | 456 kts | 334° |
| 2026-05-06 20:54 | 48.10754 | 3.73617 | 35981 ft | 456 kts | 334° |
| 2026-05-06 20:55 | 48.16224 | 3.68881 | 35979 ft | 454 kts | 320° |
| 2026-05-06 20:55 | 48.20675 | 3.62212 | 35977 ft | 453 kts | 311° |
| 2026-05-06 20:56 | 48.24953 | 3.55252 | 35976 ft | 453 kts | 311° |
| 2026-05-06 20:56 | 48.29224 | 3.48281 | 35981 ft | 453 kts | 311° |
| 2026-05-06 20:57 | 48.33487 | 3.41302 | 35983 ft | 453 kts | 311° |
| 2026-05-06 20:57 | 48.37701 | 3.34390 | 35981 ft | 452 kts | 312° |
| 2026-05-06 20:58 | 48.42603 | 3.28481 | 35982 ft | 454 kts | 330° |
| 2026-05-06 20:58 | 48.48366 | 3.24612 | 35982 ft | 454 kts | 336° |
| 2026-05-06 20:59 | 48.54196 | 3.20894 | 35981 ft | 455 kts | 336° |
| 2026-05-06 20:59 | 48.59979 | 3.17185 | 35984 ft | 455 kts | 336° |
| 2026-05-06 21:00 | 48.65817 | 3.13424 | 35983 ft | 455 kts | 336° |
| 2026-05-06 21:00 | 48.71645 | 3.09674 | 35993 ft | 455 kts | 336° |
| 2026-05-06 21:01 | 48.77466 | 3.05914 | 35990 ft | 455 kts | 336° |
| 2026-05-06 21:01 | 48.83283 | 3.02156 | 35996 ft | 454 kts | 335° |
| 2026-05-06 21:02 | 48.88826 | 2.97616 | 35988 ft | 452 kts | 329° |
| 2026-05-06 21:02 | 48.94277 | 2.92836 | 35994 ft | 452 kts | 329° |
| 2026-05-06 21:03 | 48.99731 | 2.88047 | 35991 ft | 452 kts | 329° |
| 2026-05-06 21:03 | 49.05176 | 2.83263 | 35996 ft | 452 kts | 329° |
| 2026-05-06 21:04 | 49.10635 | 2.78460 | 36010 ft | 453 kts | 329° |
| 2026-05-06 21:04 | 49.16084 | 2.73643 | 36008 ft | 453 kts | 329° |
| 2026-05-06 21:05 | 49.21498 | 2.68853 | 36004 ft | 452 kts | 329° |
| 2026-05-06 21:05 | 49.26977 | 2.63994 | 36009 ft | 452 kts | 329° |
| 2026-05-06 21:06 | 49.32372 | 2.59189 | 36009 ft | 451 kts | 329° |
| 2026-05-06 21:06 | 49.37794 | 2.54354 | 36015 ft | 451 kts | 329° |
| 2026-05-06 21:07 | 49.43215 | 2.49518 | 36013 ft | 451 kts | 329° |
| 2026-05-06 21:07 | 49.48624 | 2.44655 | 36018 ft | 450 kts | 329° |
| 2026-05-06 21:08 | 49.53680 | 2.39029 | 36024 ft | 449 kts | 317° |
| 2026-05-06 21:08 | 49.58324 | 2.32602 | 36026 ft | 449 kts | 317° |
| 2026-05-06 21:09 | 49.62975 | 2.26179 | 36014 ft | 449 kts | 317° |
| 2026-05-06 21:09 | 49.67609 | 2.19761 | 36017 ft | 448 kts | 317° |
| 2026-05-06 21:10 | 49.72238 | 2.13335 | 36017 ft | 447 kts | 317° |
| 2026-05-06 21:10 | 49.76850 | 2.06908 | 36013 ft | 446 kts | 317° |
| 2026-05-06 21:11 | 49.81462 | 2.00467 | 36001 ft | 446 kts | 317° |
| 2026-05-06 21:11 | 49.86014 | 1.93929 | 36001 ft | 446 kts | 312° |
| 2026-05-06 21:12 | 49.89432 | 1.86048 | 36003 ft | 445 kts | 294° |
| 2026-05-06 21:12 | 49.91814 | 1.77135 | 36002 ft | 445 kts | 292° |
| 2026-05-06 21:13 | 49.94149 | 1.68309 | 36001 ft | 445 kts | 292° |
| 2026-05-06 21:13 | 49.96489 | 1.59397 | 36022 ft | 446 kts | 292° |
| 2026-05-06 21:14 | 49.99513 | 1.51029 | 36010 ft | 445 kts | 309° |
| 2026-05-06 21:14 | 50.03965 | 1.44350 | 36013 ft | 446 kts | 319° |
| 2026-05-06 21:15 | 50.08644 | 1.38010 | 36013 ft | 446 kts | 318° |
| 2026-05-06 21:15 | 50.13302 | 1.31633 | 36021 ft | 446 kts | 318° |
| 2026-05-06 21:16 | 50.17958 | 1.25241 | 36024 ft | 446 kts | 318° |
| 2026-05-06 21:16 | 50.22670 | 1.18773 | 36038 ft | 457 kts | 318° |
| 2026-05-06 21:17 | 50.27505 | 1.12138 | 36007 ft | 467 kts | 318° |
| 2026-05-06 21:17 | 50.32384 | 1.05410 | 36000 ft | 458 kts | 317° |
| 2026-05-06 21:18 | 50.37076 | 0.98918 | 36010 ft | 446 kts | 317° |
| 2026-05-06 21:18 | 50.41711 | 0.92492 | 36017 ft | 444 kts | 317° |
| 2026-05-06 21:19 | 50.46289 | 0.86155 | 36010 ft | 441 kts | 318° |
| 2026-05-06 21:19 | 50.50967 | 0.79927 | 36010 ft | 441 kts | 319° |
| 2026-05-06 21:20 | 50.55680 | 0.73752 | 36017 ft | 441 kts | 319° |
| 2026-05-06 21:20 | 50.60379 | 0.67532 | 36020 ft | 441 kts | 319° |
| 2026-05-06 21:21 | 50.65054 | 0.61271 | 36030 ft | 441 kts | 318° |
| 2026-05-06 21:21 | 50.69732 | 0.54984 | 36033 ft | 442 kts | 318° |
| 2026-05-06 21:22 | 50.74402 | 0.48690 | 36032 ft | 442 kts | 318° |
| 2026-05-06 21:22 | 50.79075 | 0.42384 | 36036 ft | 442 kts | 318° |
| 2026-05-06 21:23 | 50.83761 | 0.36124 | 36038 ft | 441 kts | 318° |
| 2026-05-06 21:23 | 50.88438 | 0.29857 | 36041 ft | 441 kts | 318° |
| 2026-05-06 21:23 | 50.90763 | 0.26674 | 35365 ft | 445 kts | 317° |
| 2026-05-06 21:24 | 50.93117 | 0.23423 | 34524 ft | 450 kts | 317° |
| 2026-05-06 21:24 | 50.95480 | 0.20160 | 33767 ft | 451 kts | 317° |
| 2026-05-06 21:24 | 50.97852 | 0.16891 | 32914 ft | 452 kts | 317° |
| 2026-05-06 21:24 | 51.00236 | 0.13618 | 32037 ft | 454 kts | 317° |
| 2026-05-06 21:25 | 51.02701 | 0.10497 | 31127 ft | 457 kts | 323° |
| 2026-05-06 21:25 | 51.05327 | 0.07612 | 30209 ft | 459 kts | 323° |
| 2026-05-06 21:25 | 51.07964 | 0.04712 | 29129 ft | 462 kts | 323° |
| 2026-05-06 21:25 | 51.10610 | 0.01792 | 28002 ft | 464 kts | 323° |
| 2026-05-06 21:26 | 51.13237 | -0.01116 | 26892 ft | 467 kts | 323° |
| 2026-05-06 21:26 | 51.15910 | -0.04076 | 25749 ft | 470 kts | 324° |
| 2026-05-06 21:26 | 51.18618 | -0.07080 | 24735 ft | 470 kts | 324° |
| 2026-05-06 21:26 | 51.21295 | -0.10057 | 23818 ft | 468 kts | 324° |
| 2026-05-06 21:27 | 51.23957 | -0.13022 | 22892 ft | 465 kts | 324° |
| 2026-05-06 21:27 | 51.26592 | -0.15964 | 22033 ft | 460 kts | 324° |
| 2026-05-06 21:27 | 51.29200 | -0.18881 | 21195 ft | 455 kts | 324° |
| 2026-05-06 21:27 | 51.31779 | -0.21771 | 20368 ft | 449 kts | 324° |
| 2026-05-06 21:28 | 51.34318 | -0.24621 | 19599 ft | 445 kts | 324° |
| 2026-05-06 21:28 | 51.36838 | -0.27453 | 18838 ft | 439 kts | 324° |
| 2026-05-06 21:28 | 51.39448 | -0.29939 | 18029 ft | 435 kts | 335° |
| 2026-05-06 21:28 | 51.42313 | -0.31396 | 17192 ft | 431 kts | 348° |
| 2026-05-06 21:29 | 51.45283 | -0.31713 | 16549 ft | 423 kts | 3° |
| 2026-05-06 21:29 | 51.48127 | -0.30936 | 16437 ft | 412 kts | 15° |
| 2026-05-06 21:29 | 51.50762 | -0.29288 | 16254 ft | 412 kts | 24° |
| 2026-05-06 21:29 | 51.53352 | -0.27329 | 16058 ft | 411 kts | 24° |
| 2026-05-06 21:30 | 51.55926 | -0.25368 | 15872 ft | 409 kts | 24° |
| 2026-05-06 21:30 | 51.58464 | -0.23421 | 15713 ft | 397 kts | 24° |
| 2026-05-06 21:30 | 51.60896 | -0.21546 | 15593 ft | 381 kts | 24° |
| 2026-05-06 21:30 | 51.63233 | -0.19740 | 15481 ft | 365 kts | 24° |
| 2026-05-06 21:31 | 51.65474 | -0.18009 | 15337 ft | 350 kts | 24° |
| 2026-05-06 21:31 | 51.67648 | -0.16331 | 14990 ft | 343 kts | 24° |
| 2026-05-06 21:31 | 51.69779 | -0.14687 | 14646 ft | 337 kts | 24° |
| 2026-05-06 21:31 | 51.71871 | -0.13075 | 14305 ft | 331 kts | 24° |
| 2026-05-06 21:32 | 51.73924 | -0.11464 | 13968 ft | 326 kts | 27° |
| 2026-05-06 21:32 | 51.77286 | -0.06832 | 13230 ft | 319 kts | 45° |
| 2026-05-06 21:32 | 51.78807 | -0.04269 | 12860 ft | 315 kts | 45° |
| 2026-05-06 21:33 | 51.80317 | -0.01727 | 12490 ft | 312 kts | 44° |
| 2026-05-06 21:33 | 51.81807 | 0.00786 | 12131 ft | 308 kts | 44° |
| 2026-05-06 21:33 | 51.83285 | 0.03274 | 11776 ft | 305 kts | 44° |
| 2026-05-06 21:33 | 51.84744 | 0.05730 | 11426 ft | 302 kts | 44° |
| 2026-05-06 21:34 | 51.86266 | 0.08029 | 11072 ft | 297 kts | 32° |
| 2026-05-06 21:34 | 51.88116 | 0.09388 | 10729 ft | 290 kts | 11° |
| 2026-05-06 21:34 | 51.90101 | 0.09559 | 10389 ft | 285 kts | 350° |
| 2026-05-06 21:34 | 51.91906 | 0.08606 | 10054 ft | 281 kts | 330° |
| 2026-05-06 21:35 | 51.93447 | 0.06721 | 9687 ft | 279 kts | 318° |
| 2026-05-06 21:35 | 51.94904 | 0.04654 | 9304 ft | 278 kts | 319° |
| 2026-05-06 21:35 | 51.96352 | 0.02602 | 8935 ft | 276 kts | 319° |
| 2026-05-06 21:35 | 51.97774 | 0.00585 | 8564 ft | 274 kts | 319° |
| 2026-05-06 21:36 | 51.99210 | -0.01451 | 8194 ft | 274 kts | 319° |
| 2026-05-06 21:36 | 52.00605 | -0.03576 | 7832 ft | 275 kts | 308° |
| 2026-05-06 21:36 | 52.01492 | -0.06294 | 7477 ft | 274 kts | 285° |
| 2026-05-06 21:36 | 52.01630 | -0.09360 | 7126 ft | 273 kts | 263° |
| 2026-05-06 21:37 | 52.01415 | -0.12429 | 6778 ft | 274 kts | 262° |
| 2026-05-06 21:37 | 52.01196 | -0.15507 | 6432 ft | 274 kts | 262° |
| 2026-05-06 21:37 | 52.00976 | -0.18574 | 6063 ft | 273 kts | 263° |
| 2026-05-06 21:37 | 52.00757 | -0.21627 | 5696 ft | 272 kts | 263° |
| 2026-05-06 21:38 | 52.00540 | -0.24673 | 5336 ft | 271 kts | 263° |
| 2026-05-06 21:38 | 52.00323 | -0.27688 | 5066 ft | 266 kts | 263° |
| 2026-05-06 21:38 | 52.00108 | -0.30667 | 5048 ft | 267 kts | 263° |
| 2026-05-06 21:38 | 51.99893 | -0.33658 | 5051 ft | 267 kts | 263° |
| 2026-05-06 21:39 | 51.99622 | -0.36640 | 5036 ft | 267 kts | 256° |
| 2026-05-06 21:39 | 51.99099 | -0.39540 | 5034 ft | 267 kts | 253° |
| 2026-05-06 21:39 | 51.98563 | -0.42424 | 5042 ft | 267 kts | 253° |
| 2026-05-06 21:39 | 51.97844 | -0.45201 | 5033 ft | 267 kts | 240° |
| 2026-05-06 21:40 | 51.96776 | -0.47658 | 5039 ft | 267 kts | 231° |
| 2026-05-06 21:40 | 51.95622 | -0.50032 | 4937 ft | 270 kts | 232° |
| 2026-05-06 21:40 | 51.94467 | -0.52401 | 4665 ft | 265 kts | 232° |
| 2026-05-06 21:40 | 51.93348 | -0.54694 | 4390 ft | 252 kts | 232° |
| 2026-05-06 21:41 | 51.92294 | -0.56859 | 4121 ft | 237 kts | 232° |
| 2026-05-06 21:41 | 51.91626 | -0.58232 | 3953 ft | 232 kts | 232° |
| 2026-05-06 21:41 | 51.90507 | -0.60058 | 3691 ft | 227 kts | 210° |
| 2026-05-06 21:41 | 51.89041 | -0.60863 | 3445 ft | 223 kts | 182° |
| 2026-05-06 21:42 | 51.87532 | -0.60496 | 3198 ft | 217 kts | 155° |
| 2026-05-06 21:42 | 51.86347 | -0.59122 | 2950 ft | 206 kts | 128° |
| 2026-05-06 21:42 | 51.85549 | -0.56526 | 2625 ft | 188 kts | 106° |
| 2026-05-06 21:42 | 51.85270 | -0.55185 | 2446 ft | 184 kts | 106° |
| 2026-05-06 21:43 | 51.84939 | -0.53280 | 2199 ft | 168 kts | 95° |
| 2026-05-06 21:43 | 51.84972 | -0.51493 | 2062 ft | 151 kts | 74° |
| 2026-05-06 21:43 | 51.85217 | -0.49908 | 1993 ft | 142 kts | 72° |
| 2026-05-06 21:43 | 51.85470 | -0.48389 | 1861 ft | 138 kts | 72° |
| 2026-05-06 21:44 | 51.85724 | -0.46894 | 1695 ft | 138 kts | 72° |
| 2026-05-06 21:44 | 51.85978 | -0.45420 | 1506 ft | 137 kts | 71° |
| 2026-05-06 21:44 | 51.86242 | -0.43919 | 1292 ft | 137 kts | 71° |
| 2026-05-06 21:44 | 51.86507 | -0.42441 | 1081 ft | 137 kts | 72° |
| 2026-05-06 21:45 | 51.86754 | -0.40977 | 883 ft | 137 kts | 71° |
| 2026-05-06 21:45 | 51.87012 | -0.39483 | 684 ft | 137 kts | 72° |
| 2026-05-06 21:45 | 51.87260 | -0.38007 | 534 ft | 134 kts | 72° |
| 2026-05-06 21:45 | 51.87466 | -0.36823 | 523 ft | 72 kts | 75° |
| 2026-05-06 21:46 | 51.87577 | -0.36188 | 518 ft | 54 kts | 73° |
| 2026-05-06 21:46 | 51.87623 | -0.35947 | 516 ft | 14 kts | 58° |
| 2026-05-06 21:46 | 51.87703 | -0.35934 | 516 ft | 12 kts | 344° |
| 2026-05-06 21:46 | 51.87779 | -0.36011 | 517 ft | 13 kts | 293° |
| 2026-05-06 21:47 | 51.87773 | -0.36150 | 518 ft | 13 kts | 252° |
| 2026-05-06 21:47 | 51.87743 | -0.36302 | 518 ft | 15 kts | 251° |
| 2026-05-06 21:47 | 51.87712 | -0.36470 | 520 ft | 16 kts | 255° |
| 2026-05-06 21:47 | 51.87685 | -0.36644 | 521 ft | 16 kts | 255° |
| 2026-05-06 21:48 | 51.87657 | -0.36815 | 525 ft | 15 kts | 257° |
| 2026-05-06 21:48 | 51.87670 | -0.36940 | 524 ft | 12 kts | 329° |
| 2026-05-06 21:48 | 51.87771 | -0.37002 | 517 ft | 19 kts | 341° |
| 2026-05-06 21:48 | 51.87917 | -0.37079 | 509 ft | 24 kts | 342° |
| 2026-05-06 21:49 | 51.88081 | -0.37165 | 509 ft | 25 kts | 343° |
| 2026-05-06 21:49 | 51.88203 | -0.37231 | 517 ft | 13 kts | 339° |
| 2026-05-06 21:49 | 51.88226 | -0.37354 | 517 ft | 14 kts | 253° |
| 2026-05-06 21:49 | 51.88201 | -0.37497 | 516 ft | 12 kts | 253° |
| 2026-05-06 21:50 | 51.88160 | -0.37493 | 517 ft | 7 kts | 161° |
| 2026-05-06 21:50 | 51.88144 | -0.37484 | 517 ft | 0 kts | 161° |